Metropolitan Oakland International Airport
KOAK : now visible

Airfield :











YOU CAN JOIN US ON...

 
LOGIN :

Register | Disclaimer

   EN    FR    IT 

 









Legend :    VFR   Marginal VFR   IFR   Intensive IFR   Very Intensive IFR
Visi :
Ceiling :
>= 8 km
>= 3000ft
5 to 8 km
1000 to 3000 ft
1500m to 5 km
500 to 1000 ft
800 to 1500m
200 to 500 ft
< 800m
< 200 ft
Symbols :   Thunderstorms  Fog  Heavy snow  Heavy precipitations  Wind > 20 kt






- Airport Elevation : 9 ft
- IATA code : OAK


KOAK - Metropolitan Oakland International

CURRENT METAR :
  • 120153Z 00000KT 10SM BKN023 OVC030 16/13 A3017 RMK AO2 SLP216 T01560128

EXPIRED METARs :
  • 120053Z 29005KT 10SM BKN023 OVC032 16/12 A3019 RMK AO2 SLP224 T01560122
  • 112353Z 00000KT 10SM OVC019 16/12 A3019 RMK AO2 RAB33E44 SLP222 P0000 60000 T01560122 10167 20144 55007

TAF KOAK
Valid from the 12 at 00:00 until the 13 at 06:00 UTC


112336Z 1200/1306 11004KT P6SM VCSH OVC021
FM120400 14008KT P6SM OVC025
FM121000 13005KT 5SM -RA BR OVC012
FM130300 VRB03KT P6SM OVC008



MET'MAP, your aeronautical weather chart ! - Copyright ORBIFLY December 2007 - Disclaimer

ORBIFLY MET'MAP TEAM :

Programming & Development : Alexandra Zaïnal
Concept & original design : Baudouin d'Aumeries
Assistance for programming : Marc-Olivier Méhu
Technical & hardware support : Manuel Goepfert

Contact : metmap@orbifly.com




SOURCES & CREDITS :

   NOAA       Earth
Advisory